createdAt,value
2018-04-08T00:04:09.384Z,5.72
2018-04-08T00:10:00.036Z,4.45
2018-04-08T00:15:50.756Z,6.08
2018-04-08T00:21:41.408Z,6.07
2018-04-08T00:27:32.051Z,5.57
2018-04-08T00:33:22.725Z,6.21
2018-04-08T00:39:13.432Z,3.88
2018-04-08T00:45:04.077Z,5.65
2018-04-08T00:50:54.768Z,8.49
2018-04-08T00:56:45.429Z,6.31
2018-04-08T01:02:36.081Z,4.93
2018-04-08T01:08:26.748Z,5.86
2018-04-08T01:14:17.505Z,6.99
2018-04-08T01:20:08.127Z,5.41
2018-04-08T01:25:58.741Z,5.03
2018-04-08T01:31:49.430Z,4.51
2018-04-08T01:37:40.071Z,6.53
2018-04-08T01:43:30.739Z,5.34
2018-04-08T01:49:21.409Z,6.95
2018-04-08T01:55:12.081Z,5.57
2018-04-08T02:01:02.735Z,5.41
2018-04-08T02:06:53.393Z,6.01
2018-04-08T02:12:44.072Z,6.69
2018-04-08T02:18:34.797Z,6.29
2018-04-08T02:24:25.406Z,7.69
2018-04-08T02:30:16.088Z,5.96
2018-04-08T02:36:06.720Z,5.66
2018-04-08T02:41:57.402Z,5.72
2018-04-08T02:47:48.048Z,6.42
2018-04-08T02:53:38.761Z,4.61
2018-04-08T02:59:29.386Z,6
2018-04-08T03:05:20.072Z,7.43
2018-04-08T03:11:10.761Z,7.3
2018-04-08T03:17:01.425Z,5.4
2018-04-08T03:22:52.056Z,6.39
2018-04-08T03:28:42.774Z,5.26
2018-04-08T03:34:33.417Z,7.25
2018-04-08T03:40:24.015Z,4.15
2018-04-08T03:46:14.674Z,3.54
2018-04-08T03:52:05.381Z,5.49
2018-04-08T03:57:56.112Z,7.76
2018-04-08T04:03:46.679Z,10.3
2018-04-08T04:09:37.318Z,4.71
2018-04-08T04:15:27.983Z,5.74
2018-04-08T04:21:18.642Z,6.86
2018-04-08T04:27:09.306Z,168
2018-04-08T04:32:59.964Z,80.19
2018-04-08T04:38:50.668Z,31.45
2018-04-08T04:44:41.295Z,31.38
2018-04-08T04:50:31.977Z,50.05
2018-04-08T04:56:22.610Z,67.75
2018-04-08T05:02:13.295Z,50.71
2018-04-08T05:08:03.998Z,57.6
2018-04-08T05:13:54.584Z,88.49
2018-04-08T05:19:45.235Z,129.41
2018-04-08T05:25:35.900Z,102.18
2018-04-08T05:31:26.577Z,54.3
2018-04-08T05:37:17.220Z,52.89
2018-04-08T05:43:07.919Z,96.8
2018-04-08T05:48:58.564Z,60.54
2018-04-08T05:54:49.202Z,52.04
2018-04-08T06:00:39.906Z,46.35
2018-04-08T06:06:30.494Z,47.79
2018-04-08T06:12:21.192Z,52.86
2018-04-08T06:18:11.848Z,45.64
2018-04-08T06:24:02.433Z,39.67
2018-04-08T06:29:53.135Z,42.96
2018-04-08T06:35:43.811Z,37.73
2018-04-08T06:41:34.418Z,36.82
2018-04-08T06:47:25.151Z,39.2
2018-04-08T06:53:15.777Z,50.87
2018-04-08T06:59:06.438Z,49.26
2018-04-08T07:04:57.074Z,53.07
2018-04-08T07:10:47.740Z,61.45
2018-04-08T07:16:38.396Z,47.8
2018-04-08T07:22:29.066Z,48.76
2018-04-08T07:28:19.789Z,33.75
2018-04-08T07:34:10.475Z,19.84
2018-04-08T07:40:01.064Z,20.37
2018-04-08T07:45:51.787Z,15.99
2018-04-08T07:51:42.408Z,14.66
2018-04-08T07:57:33.069Z,18.69
2018-04-08T08:03:23.765Z,14.27
2018-04-08T08:09:14.457Z,12.6
2018-04-08T08:15:05.078Z,16.71
2018-04-08T08:20:55.761Z,21.93
2018-04-08T08:26:46.458Z,19.69
2018-04-08T08:32:37.155Z,13.25
2018-04-08T08:38:27.846Z,16.75
2018-04-08T08:44:18.630Z,20.69
2018-04-08T08:50:09.197Z,13.36
2018-04-08T08:55:59.876Z,8.13
2018-04-08T09:01:50.585Z,9.05
2018-04-08T09:07:41.255Z,6.04
2018-04-08T09:13:31.976Z,7.22
2018-04-08T09:19:22.630Z,6.51
2018-04-08T09:25:13.369Z,5.27
2018-04-08T09:31:04.052Z,4.89
2018-04-08T09:36:54.765Z,13.18
2018-04-08T09:42:45.447Z,5.36
2018-04-08T09:48:36.177Z,4.28
2018-04-08T09:54:26.919Z,5.6
2018-04-08T10:00:17.596Z,3.85
2018-04-08T10:06:08.336Z,4.27
2018-04-08T10:11:59.052Z,5.14
2018-04-08T10:17:49.726Z,6.74
2018-04-08T10:23:42.619Z,5.3
2018-04-08T10:29:31.167Z,3.22
2018-04-08T10:35:22.641Z,5.22
2018-04-08T10:41:12.639Z,5.43
2018-04-08T10:47:03.334Z,6.21
2018-04-08T10:52:54.086Z,4.51
2018-04-08T10:58:44.778Z,4.91
2018-04-08T11:04:35.550Z,11.24
2018-04-08T11:10:26.324Z,7.01
2018-04-08T11:16:16.980Z,5.3
2018-04-08T11:22:07.746Z,5.22
2018-04-08T11:27:58.474Z,3.36
2018-04-08T11:33:49.199Z,4
2018-04-08T11:39:39.940Z,5.24
2018-04-08T11:45:30.673Z,5.7
2018-04-08T11:51:21.396Z,3.29
2018-04-08T11:57:12.178Z,5.79
2018-04-08T12:03:02.888Z,5.69
2018-04-08T12:08:53.649Z,2.1
2018-04-08T12:14:44.410Z,2.73
2018-04-08T12:20:35.110Z,4.39
2018-04-08T12:26:25.859Z,3.85
2018-04-08T12:32:16.602Z,3.25
2018-04-08T12:38:07.371Z,5.92
2018-04-08T12:43:58.132Z,5.11
2018-04-08T12:49:48.813Z,3.51
2018-04-08T12:55:39.601Z,4.96
2018-04-08T13:01:30.284Z,4.21
2018-04-08T13:07:21.041Z,4.85
2018-04-08T13:13:11.789Z,2.92
2018-04-08T13:19:02.526Z,7.25
2018-04-08T13:24:53.334Z,7.05
2018-04-08T13:30:44.056Z,2.76
2018-04-08T13:36:34.763Z,3.19
2018-04-08T13:42:25.528Z,3.42
2018-04-08T13:48:16.343Z,4.6
2018-04-08T13:54:07.041Z,2.93
2018-04-08T13:59:57.785Z,2.85
2018-04-08T14:05:48.500Z,4.4
2018-04-08T14:11:39.286Z,4.77
2018-04-08T14:17:30.016Z,4.56
2018-04-08T14:23:20.806Z,2.41
2018-04-08T14:29:11.525Z,3.63
2018-04-08T14:35:02.228Z,4.45
2018-04-08T14:40:53.002Z,2.42
2018-04-08T14:46:43.772Z,4.29
2018-04-08T14:52:34.547Z,3.44
2018-04-08T14:58:25.225Z,2.75
2018-04-08T15:04:15.968Z,4.18
2018-04-08T15:10:06.707Z,5.2
2018-04-08T15:15:57.498Z,3.46
2018-04-08T15:21:48.220Z,3.72
2018-04-08T15:27:38.963Z,5.08
2018-04-08T15:33:29.750Z,2.81
2018-04-08T15:39:20.477Z,3.02
2018-04-08T15:45:11.233Z,5.02
2018-04-08T15:51:01.982Z,4.14
2018-04-08T15:56:52.698Z,4
2018-04-08T16:02:44.016Z,4.82
2018-04-08T16:08:34.165Z,6.68
2018-04-08T16:14:24.921Z,6.29
2018-04-08T16:20:15.666Z,12.79
2018-04-08T16:26:06.444Z,8.92
2018-04-08T16:31:57.135Z,9.96
2018-04-08T16:38:11.072Z,5.49
2018-04-08T16:43:38.640Z,7.12
2018-04-08T16:49:29.368Z,7.59
2018-04-08T16:55:20.107Z,10.31
2018-04-08T17:01:10.871Z,9.41
2018-04-08T17:07:01.607Z,7.06
2018-04-08T17:12:52.294Z,7.6
2018-04-08T17:18:43.078Z,7.35
2018-04-08T17:24:33.770Z,9.6
2018-04-08T17:30:24.497Z,5.06
2018-04-08T17:36:15.212Z,16.85
2018-04-08T17:42:05.986Z,8.49
2018-04-08T17:47:56.632Z,8.86
2018-04-08T17:53:47.383Z,9.38
2018-04-08T17:59:38.101Z,7.55
2018-04-08T18:05:28.829Z,5.7
2018-04-08T18:11:19.555Z,8.09
2018-04-08T18:17:10.263Z,8.43
2018-04-08T18:23:00.999Z,12.55
2018-04-08T18:28:51.656Z,6.26
2018-04-08T18:34:42.390Z,5.86
2018-04-08T18:40:33.097Z,8.96
2018-04-08T18:46:23.833Z,21.54
2018-04-08T18:52:14.529Z,20.7
2018-04-08T18:58:05.234Z,17.75
2018-04-08T19:03:55.932Z,19.83
2018-04-08T19:09:46.653Z,11.41
2018-04-08T19:15:37.348Z,17.55
2018-04-08T19:21:28.070Z,13.96
2018-04-08T19:27:18.779Z,7.95
2018-04-08T19:33:09.484Z,7.72
2018-04-08T19:39:00.183Z,11.23
2018-04-08T19:44:50.885Z,7.91
2018-04-08T19:50:41.588Z,44.56
2018-04-08T19:56:32.310Z,25.61
2018-04-08T20:02:23.087Z,9.64
2018-04-08T20:08:13.765Z,4.68
2018-04-08T20:14:04.404Z,7.76
2018-04-08T20:19:55.138Z,5.12
2018-04-08T20:25:45.860Z,5.63
2018-04-08T20:31:36.551Z,5.17
2018-04-08T20:37:27.267Z,4.59
2018-04-08T20:43:18.008Z,7.19
2018-04-08T20:49:08.681Z,6.84
2018-04-08T20:54:59.369Z,5.3
2018-04-08T21:00:50.155Z,7.18
2018-04-08T21:06:40.798Z,5.1
2018-04-08T21:12:31.501Z,4.28
2018-04-08T21:18:22.218Z,4.51
2018-04-08T21:24:12.896Z,7.13
2018-04-08T21:30:03.619Z,4.47
2018-04-08T21:35:54.314Z,5.55
2018-04-08T21:41:45.017Z,10.9
2018-04-08T21:47:35.740Z,4.76
2018-04-08T21:53:26.414Z,4.34
2018-04-08T21:59:17.196Z,6.25
2018-04-08T22:05:07.836Z,4.96
2018-04-08T22:10:58.552Z,3.97
2018-04-08T22:16:49.264Z,2.93
2018-04-08T22:22:39.944Z,5.12
2018-04-08T22:28:30.625Z,5.1
2018-04-08T22:34:21.320Z,4.64
2018-04-08T22:40:12.044Z,6.56
2018-04-08T22:46:02.782Z,12.72
2018-04-08T22:51:53.510Z,17
2018-04-08T22:57:44.168Z,13.34
2018-04-08T23:03:34.871Z,11.54
2018-04-08T23:09:25.562Z,8.27
2018-04-08T23:15:16.267Z,12.04
2018-04-08T23:21:06.967Z,8.9
2018-04-08T23:26:57.661Z,8.41
2018-04-08T23:32:48.382Z,8.2
2018-04-08T23:38:39.073Z,8.29
2018-04-08T23:44:29.760Z,6.22
2018-04-08T23:50:20.454Z,10.42
2018-04-08T23:56:11.146Z,9.88
